Time;durP1;ratioP1;P1;durP2;ratioP2;P2;SDS_P1;SDS_P2;PMS_P1;PMS_P2;Temp;Humidity;BMP_temperature;BMP_pressure;BME280_temperature;BME280_humidity;BME280_pressure;Samples;Min_cycle;Max_cycle;Signal;HPM_P1;HPM_P2
2021/06/27 00:02:02;;;;;;;6.32;4.55;;;30.20;39.40;;;;;;4341159;33;20059;-37
2021/06/27 00:04:29;;;;;;;7.55;4.55;;;30.20;39.30;;;;;;4328810;33;20087;-37
2021/06/27 00:06:55;;;;;;;6.35;4.70;;;30.20;39.30;;;;;;4366056;32;20534;-39
2021/06/27 00:09:22;;;;;;;7.15;4.93;;;30.20;39.40;;;;;;4358182;32;20592;-38
2021/06/27 00:11:48;;;;;;;6.78;5.20;;;30.00;39.40;;;;;;4358593;32;20073;-39
2021/06/27 00:14:14;;;;;;;4.82;4.43;;;29.90;39.70;;;;;;4370609;32;20074;-38
2021/06/27 00:16:41;;;;;;;9.40;5.45;;;29.80;39.90;;;;;;4370476;32;20110;-43
2021/06/27 00:19:08;;;;;;;9.43;4.78;;;29.70;40.00;;;;;;4370724;32;20081;-38
2021/06/27 00:21:35;;;;;;;9.25;5.12;;;29.70;40.20;;;;;;4325730;33;20506;-38
2021/06/27 00:24:01;;;;;;;5.78;4.37;;;29.60;40.40;;;;;;4325855;33;20653;-38
2021/06/27 00:26:28;;;;;;;5.53;4.80;;;29.50;40.50;;;;;;4318598;32;20510;-38
2021/06/27 00:28:55;;;;;;;8.63;5.32;;;29.50;40.60;;;;;;4355450;32;20329;-38
2021/06/27 00:31:21;;;;;;;6.95;5.20;;;29.50;40.70;;;;;;4344384;32;20094;-39
2021/06/27 00:33:48;;;;;;;7.90;5.00;;;29.50;40.60;;;;;;4357942;32;20120;-39
2021/06/27 00:36:15;;;;;;;6.95;5.70;;;29.30;40.70;;;;;;4357753;32;20079;-38
2021/06/27 00:38:41;;;;;;;5.80;5.28;;;29.20;41.10;;;;;;4345496;32;20520;-37
2021/06/27 00:41:08;;;;;;;5.25;4.85;;;29.20;41.30;;;;;;4346040;32;20078;-38
2021/06/27 00:43:34;;;;;;;7.05;5.30;;;29.20;41.60;;;;;;4357793;32;20123;-39
2021/06/27 00:46:01;;;;;;;5.68;5.12;;;29.20;41.70;;;;;;4331691;32;20104;-38
2021/06/27 00:48:28;;;;;;;8.95;4.65;;;29.30;41.80;;;;;;4333844;33;20191;-37
2021/06/27 00:50:56;;;;;;;11.48;5.78;;;29.40;41.60;;;;;;4328983;33;20075;-38
2021/06/27 00:53:22;;;;;;;6.65;5.10;;;29.50;41.30;;;;;;4340725;32;20515;-38
2021/06/27 00:55:57;;;;;;;9.88;5.30;;;29.70;41.30;;;;;;4352732;32;20070;-37
2021/06/27 00:58:31;;;;;;;10.90;5.15;;;29.80;43.40;;;;;;4359570;32;20058;-37
2021/06/27 01:00:58;;;;;;;7.90;5.20;;;29.80;42.80;;;;;;4373419;32;20158;-38
2021/06/27 01:03:25;;;;;;;7.37;5.55;;;29.90;43.50;;;;;;4372784;32;20526;-38
2021/06/27 01:05:51;;;;;;;10.77;4.93;;;29.90;43.00;;;;;;4372850;32;20459;-38
2021/06/27 01:08:18;;;;;;;9.82;5.15;;;30.00;43.40;;;;;;4373427;32;20178;-37
2021/06/27 01:10:47;;;;;;;7.62;5.32;;;30.20;43.00;;;;;;4386029;32;20535;-38
2021/06/27 01:13:16;;;;;;;7.93;6.18;;;30.20;43.10;;;;;;4388112;32;20092;-37
2021/06/27 01:15:42;;;;;;;5.78;4.45;;;30.30;43.20;;;;;;4386385;32;20077;-38
2021/06/27 01:18:09;;;;;;;8.65;5.78;;;30.60;43.10;;;;;;4354916;32;20606;-38
2021/06/27 01:20:37;;;;;;;6.65;5.50;;;30.80;42.40;;;;;;4355356;32;20069;-38
2021/06/27 01:23:06;;;;;;;5.22;4.78;;;31.00;41.80;;;;;;4355645;32;20083;-38
2021/06/27 01:25:35;;;;;;;6.05;4.95;;;31.20;41.60;;;;;;4355662;32;20094;-39
2021/06/27 01:28:02;;;;;;;6.15;4.93;;;31.40;41.30;;;;;;4343236;32;20522;-38
2021/06/27 01:30:29;;;;;;;7.12;5.07;;;31.60;41.20;;;;;;4355350;32;20066;-38
2021/06/27 01:32:57;;;;;;;10.82;5.70;;;31.70;41.30;;;;;;4355595;32;20073;-37
2021/06/27 01:35:25;;;;;;;7.47;5.25;;;31.60;41.20;;;;;;4356927;32;20186;-37
2021/06/27 01:37:52;;;;;;;5.93;5.35;;;31.60;41.70;;;;;;4333423;32;20115;-37
2021/06/27 01:40:21;;;;;;;10.15;4.75;;;31.50;41.90;;;;;;4358386;32;20128;-38
2021/06/27 01:42:48;;;;;;;10.57;5.22;;;31.40;41.50;;;;;;4358307;32;20074;-38
2021/06/27 01:45:25;;;;;;;5.95;4.57;;;31.40;41.30;;;;;;4333088;32;20584;-37
2021/06/27 01:47:59;;;;;;;7.35;4.68;;;31.40;41.20;;;;;;4345529;32;20615;-37
2021/06/27 01:50:26;;;;;;;7.78;4.57;;;31.50;40.50;;;;;;4375505;32;20181;-37
2021/06/27 01:52:53;;;;;;;7.43;4.37;;;31.60;40.10;;;;;;4375050;32;20606;-37
2021/06/27 01:55:20;;;;;;;7.30;5.10;;;31.70;40.00;;;;;;4373804;32;20478;-37
2021/06/27 01:57:47;;;;;;;5.62;4.40;;;31.80;39.80;;;;;;4344872;32;20157;-37
2021/06/27 02:00:14;;;;;;;7.35;4.37;;;32.10;39.70;;;;;;4357795;32;20526;-37
2021/06/27 02:02:41;;;;;;;6.47;4.68;;;32.30;39.10;;;;;;4357707;32;20077;-37
2021/06/27 02:05:08;;;;;;;10.68;5.55;;;32.50;38.70;;;;;;4313041;33;20605;-37
2021/06/27 02:07:38;;;;;;;5.25;4.50;;;32.60;38.50;;;;;;4313408;33;20245;-37
2021/06/27 02:10:10;;;;;;;8.52;5.12;;;32.70;38.30;;;;;;4313523;33;20552;-38
2021/06/27 02:12:37;;;;;;;4.85;4.37;;;32.90;38.20;;;;;;4301427;33;20083;-37
2021/06/27 02:15:06;;;;;;;8.15;4.93;;;33.00;38.10;;;;;;4301101;33;20083;-37
2021/06/27 02:17:32;;;;;;;6.37;4.93;;;33.20;37.70;;;;;;4312945;33;20605;-36
2021/06/27 02:19:59;;;;;;;5.72;4.93;;;33.40;37.70;;;;;;4312989;33;20075;-36
2021/06/27 02:22:25;;;;;;;6.60;5.65;;;33.70;37.90;;;;;;4313368;33;20082;-36
2021/06/27 02:24:52;;;;;;;6.85;5.12;;;34.10;37.70;;;;;;4283486;33;20083;-37
2021/06/27 02:27:18;;;;;;;8.38;4.70;;;34.40;37.10;;;;;;4284482;33;20531;-38
2021/06/27 02:29:45;;;;;;;7.75;4.80;;;34.60;37.00;;;;;;4284189;33;20158;-37
2021/06/27 02:32:11;;;;;;;6.60;4.78;;;34.90;36.50;;;;;;4284146;33;20066;-37
2021/06/27 02:34:38;;;;;;;6.55;5.00;;;34.90;36.30;;;;;;4291025;33;20669;-37
2021/06/27 02:37:04;;;;;;;6.57;5.10;;;34.90;36.40;;;;;;4339632;32;20685;-38
2021/06/27 02:39:31;;;;;;;7.43;4.97;;;34.90;36.60;;;;;;4344815;32;20067;-37
2021/06/27 02:41:57;;;;;;;8.80;5.30;;;34.90;36.80;;;;;;4327291;33;20067;-37
2021/06/27 02:44:24;;;;;;;8.63;4.57;;;34.90;37.70;;;;;;4327419;33;20055;-37
2021/06/27 02:46:50;;;;;;;6.97;4.78;;;35.00;38.20;;;;;;4327286;33;20487;-37
2021/06/27 02:49:22;;;;;;;6.93;5.12;;;35.10;38.00;;;;;;4341531;33;20141;-36
2021/06/27 02:51:48;;;;;;;5.68;5.18;;;35.10;38.10;;;;;;4330334;33;20158;-36
2021/06/27 02:54:15;;;;;;;6.00;5.43;;;35.10;38.00;;;;;;4342239;33;20214;-36
2021/06/27 02:56:41;;;;;;;6.18;5.40;;;35.10;37.60;;;;;;4367312;32;20584;-37
2021/06/27 02:59:08;;;;;;;5.68;4.50;;;35.10;37.10;;;;;;4346639;32;20584;-37
2021/06/27 03:01:34;;;;;;;5.12;4.10;;;35.10;37.10;;;;;;4371888;32;20086;-38
2021/06/27 03:04:01;;;;;;;5.25;4.15;;;35.10;37.60;;;;;;4371777;32;20085;-37
2021/06/27 03:06:27;;;;;;;4.25;3.95;;;35.10;37.60;;;;;;4371743;32;20066;-38
2021/06/27 03:08:53;;;;;;;5.68;4.37;;;35.10;37.70;;;;;;4346763;32;20077;-38
2021/06/27 03:11:20;;;;;;;6.57;3.80;;;35.10;37.60;;;;;;4359310;32;20085;-37
2021/06/27 03:13:46;;;;;;;5.10;4.50;;;35.10;37.70;;;;;;4347113;32;20065;-37
2021/06/27 03:16:13;;;;;;;7.03;4.30;;;35.10;37.80;;;;;;4359363;32;20066;-37
2021/06/27 03:18:40;;;;;;;7.60;5.15;;;35.10;38.00;;;;;;4371844;32;20554;-37
2021/06/27 03:21:06;;;;;;;5.12;4.82;;;35.10;37.10;;;;;;4360413;32;20141;-36
2021/06/27 03:23:33;;;;;;;5.60;4.57;;;35.20;36.80;;;;;;4374264;32;20058;-36
2021/06/27 03:26:00;;;;;;;6.43;4.53;;;35.30;36.90;;;;;;4331343;32;20061;-37
2021/06/27 03:28:31;;;;;;;4.65;4.25;;;35.30;36.90;;;;;;4314361;33;20506;-36
2021/06/27 03:30:57;;;;;;;6.72;5.03;;;35.40;36.90;;;;;;4326521;33;20671;-38
2021/06/27 03:33:24;;;;;;;5.43;4.57;;;35.40;36.90;;;;;;4326735;33;20081;-38
2021/06/27 03:35:50;;;;;;;9.50;5.15;;;35.50;36.80;;;;;;4326380;33;20154;-37
2021/06/27 03:40:44;;;;;;;5.20;4.78;;;35.50;37.00;;;;;;4326917;33;20079;-37
2021/06/27 03:43:10;;;;;;;7.53;5.00;;;35.40;37.10;;;;;;4311607;33;20095;-37
2021/06/27 03:45:38;;;;;;;5.55;4.95;;;35.50;36.90;;;;;;4311886;33;20527;-38
2021/06/27 03:48:06;;;;;;;7.80;4.57;;;35.50;36.70;;;;;;4304240;33;20074;-37
2021/06/27 03:50:33;;;;;;;6.37;4.40;;;35.60;36.60;;;;;;4311666;33;20169;-36
2021/06/27 03:53:00;;;;;;;6.47;4.20;;;35.70;36.30;;;;;;4312161;33;20107;-37
2021/06/27 03:55:29;;;;;;;8.63;4.85;;;35.80;36.00;;;;;;4299623;33;20212;-38
2021/06/27 03:57:55;;;;;;;6.85;4.82;;;35.90;36.10;;;;;;4299315;33;20060;-38
2021/06/27 04:00:22;;;;;;;4.40;4.07;;;36.00;36.10;;;;;;4299731;33;20106;-38
2021/06/27 04:02:49;;;;;;;9.25;4.75;;;36.10;36.20;;;;;;4311921;33;20075;-38
2021/06/27 04:05:15;;;;;;;5.75;4.55;;;36.20;36.20;;;;;;4306536;33;20063;-43
2021/06/27 04:07:42;;;;;;;7.72;5.55;;;36.30;35.80;;;;;;4328837;33;20098;-37
2021/06/27 04:10:09;;;;;;;4.72;4.43;;;36.40;35.60;;;;;;4328865;33;20547;-37
2021/06/27 04:12:35;;;;;;;6.15;5.03;;;36.60;35.50;;;;;;4328865;33;20514;-37
2021/06/27 04:15:04;;;;;;;5.78;4.78;;;36.60;35.50;;;;;;4341597;32;20065;-38
2021/06/27 04:17:31;;;;;;;7.00;4.37;;;36.50;35.30;;;;;;4343932;32;20076;-37
2021/06/27 04:19:57;;;;;;;6.70;4.40;;;36.50;35.30;;;;;;4355585;32;20700;-38
2021/06/27 04:22:24;;;;;;;5.45;4.30;;;36.60;35.30;;;;;;4343437;32;20577;-38
2021/06/27 04:24:50;;;;;;;5.28;4.68;;;36.50;35.20;;;;;;4355929;32;20529;-37
2021/06/27 04:27:17;;;;;;;5.28;4.05;;;36.50;35.10;;;;;;4355408;32;20096;-38
2021/06/27 04:29:45;;;;;;;5.25;4.85;;;36.70;35.30;;;;;;4355539;32;20495;-39
2021/06/27 04:32:11;;;;;;;4.55;4.15;;;37.00;34.90;;;;;;4355615;32;20054;-38
2021/06/27 04:34:38;;;;;;;5.00;4.60;;;37.20;34.80;;;;;;4357375;32;20066;-38
2021/06/27 04:37:05;;;;;;;5.53;5.03;;;37.40;34.10;;;;;;4358126;32;20062;-38
2021/06/27 04:39:31;;;;;;;6.03;4.62;;;37.60;34.20;;;;;;4344591;32;20139;-38
2021/06/27 04:41:58;;;;;;;8.73;5.35;;;37.60;34.10;;;;;;4358120;32;20113;-38
2021/06/27 04:44:24;;;;;;;8.18;4.78;;;37.60;34.10;;;;;;4358212;32;20102;-38
2021/06/27 04:46:51;;;;;;;6.20;5.15;;;37.70;35.00;;;;;;4357173;32;20090;-39
2021/06/27 04:49:17;;;;;;;6.65;5.15;;;37.80;33.70;;;;;;4372294;32;20050;-38
2021/06/27 04:51:43;;;;;;;4.97;4.50;;;37.90;33.40;;;;;;4371232;32;20530;-38
2021/06/27 04:54:10;;;;;;;6.03;4.65;;;37.80;32.60;;;;;;4358993;32;20058;-38
2021/06/27 04:56:36;;;;;;;5.25;4.78;;;37.80;32.10;;;;;;4372942;32;20539;-40
2021/06/27 04:59:03;;;;;;;5.35;4.75;;;37.70;32.70;;;;;;4371281;32;20082;-38
2021/06/27 05:01:30;;;;;;;7.82;4.97;;;37.70;32.80;;;;;;4371380;32;20518;-37
2021/06/27 05:03:56;;;;;;;5.47;4.87;;;37.60;33.30;;;;;;4373079;32;20066;-45
2021/06/27 05:06:23;;;;;;;5.78;4.82;;;37.60;33.40;;;;;;4355285;32;20117;-38
2021/06/27 05:08:49;;;;;;;6.10;5.12;;;37.60;33.50;;;;;;4349236;32;20062;-38
2021/06/27 05:11:16;;;;;;;7.47;4.87;;;37.60;32.90;;;;;;4373272;32;20096;-38
2021/06/27 05:13:42;;;;;;;11.23;5.00;;;37.70;32.30;;;;;;4373382;32;20065;-39
2021/06/27 05:16:09;;;;;;;5.22;4.72;;;37.90;32.50;;;;;;4373380;32;20511;-39
2021/06/27 05:18:35;;;;;;;5.07;4.68;;;38.00;32.00;;;;;;4373233;32;20147;-39
2021/06/27 05:21:02;;;;;;;5.18;4.78;;;38.10;31.30;;;;;;4373312;32;20073;-37
2021/06/27 05:23:28;;;;;;;5.35;4.80;;;38.10;31.70;;;;;;4372596;32;20081;-39
2021/06/27 05:25:54;;;;;;;4.68;4.37;;;38.20;31.40;;;;;;4373348;32;20159;-39
2021/06/27 05:28:21;;;;;;;6.12;5.28;;;38.30;31.60;;;;;;4373006;32;20098;-38
2021/06/27 05:30:47;;;;;;;4.72;4.32;;;38.40;30.90;;;;;;4372868;32;20096;-39
2021/06/27 05:33:14;;;;;;;5.68;4.68;;;38.40;30.10;;;;;;4372997;32;20077;-38
2021/06/27 05:35:40;;;;;;;5.97;4.85;;;38.30;30.00;;;;;;4373375;32;20149;-38
2021/06/27 05:38:07;;;;;;;5.00;4.60;;;38.20;30.40;;;;;;4372723;32;20078;-39
2021/06/27 05:40:34;;;;;;;6.20;5.07;;;38.30;30.00;;;;;;4372726;32;20082;-39
2021/06/27 05:43:00;;;;;;;8.20;4.85;;;38.50;29.80;;;;;;4362990;32;20104;-39
2021/06/27 05:45:27;;;;;;;5.80;4.60;;;38.70;29.70;;;;;;4390906;32;20093;-38
2021/06/27 05:47:53;;;;;;;5.35;4.60;;;38.90;29.60;;;;;;4384834;32;20142;-40
2021/06/27 05:50:21;;;;;;;7.47;4.60;;;39.10;29.40;;;;;;4375144;32;20471;-39
2021/06/27 05:52:47;;;;;;;4.87;4.53;;;39.20;29.50;;;;;;4375166;32;20062;-38
2021/06/27 05:55:14;;;;;;;6.10;4.75;;;39.20;29.30;;;;;;4373429;32;20050;-38
2021/06/27 05:57:40;;;;;;;4.95;4.53;;;39.20;29.20;;;;;;4373397;32;20154;-39
2021/06/27 06:00:07;;;;;;;10.40;5.10;;;39.10;29.20;;;;;;4373622;32;20051;-40
2021/06/27 06:02:34;;;;;;;4.57;4.25;;;38.90;29.60;;;;;;4375446;32;20056;-39
2021/06/27 06:05:00;;;;;;;6.47;4.65;;;38.90;29.50;;;;;;4373680;32;20058;-37
2021/06/27 06:07:27;;;;;;;5.75;5.15;;;38.70;29.50;;;;;;4375045;32;20066;-39
2021/06/27 06:09:53;;;;;;;5.12;4.72;;;38.60;29.50;;;;;;4386832;32;20070;-39
2021/06/27 06:12:20;;;;;;;6.32;5.80;;;38.50;29.80;;;;;;4390206;32;20515;-38
2021/06/27 06:14:46;;;;;;;5.93;4.95;;;38.40;29.80;;;;;;4388796;32;20148;-38
2021/06/27 06:17:13;;;;;;;6.05;5.00;;;38.40;30.00;;;;;;4389758;32;20092;-41
2021/06/27 06:19:40;;;;;;;6.37;5.47;;;38.30;30.10;;;;;;4389982;32;20549;-39
2021/06/27 06:22:07;;;;;;;8.48;6.07;;;38.50;30.20;;;;;;4389391;32;20073;-39
2021/06/27 06:24:34;;;;;;;7.05;6.28;;;38.70;30.00;;;;;;4389896;32;20078;-38
2021/06/27 06:27:00;;;;;;;8.55;7.45;;;38.90;29.90;;;;;;4389699;32;20068;-39
2021/06/27 06:29:27;;;;;;;10.77;8.48;;;39.00;29.60;;;;;;4389831;32;20050;-40
2021/06/27 06:31:53;;;;;;;12.20;10.60;;;39.10;29.30;;;;;;4375489;32;20170;-39
2021/06/27 06:34:20;;;;;;;10.48;8.18;;;39.20;29.10;;;;;;4387813;32;20069;-40
2021/06/27 06:36:48;;;;;;;10.68;8.55;;;39.30;29.40;;;;;;4387871;32;20062;-39
2021/06/27 06:39:15;;;;;;;11.85;9.70;;;39.50;29.30;;;;;;4389819;32;20078;-40
2021/06/27 06:41:41;;;;;;;11.85;7.78;;;39.70;29.00;;;;;;4388266;32;20077;-39
2021/06/27 06:44:08;;;;;;;10.48;7.10;;;39.90;29.00;;;;;;4389626;32;20064;-39
2021/06/27 06:46:34;;;;;;;10.20;8.05;;;40.20;29.30;;;;;;4388095;32;20533;-38
2021/06/27 06:49:01;;;;;;;11.85;7.68;;;40.40;28.80;;;;;;4389827;32;20149;-39
2021/06/27 06:51:27;;;;;;;9.32;7.53;;;40.50;28.70;;;;;;4388036;32;20073;-39
2021/06/27 06:53:54;;;;;;;8.13;6.97;;;40.60;28.50;;;;;;4389777;32;20109;-39
2021/06/27 06:56:20;;;;;;;8.35;7.53;;;40.60;28.10;;;;;;4389484;32;20173;-40
2021/06/27 06:58:47;;;;;;;8.18;6.45;;;40.50;28.10;;;;;;4389127;32;20089;-39
2021/06/27 07:01:14;;;;;;;6.60;5.85;;;40.50;28.20;;;;;;4387582;32;20074;-39
2021/06/27 07:03:41;;;;;;;7.93;6.82;;;40.40;28.10;;;;;;4387848;32;20056;-39
2021/06/27 07:06:07;;;;;;;8.73;6.30;;;40.40;28.10;;;;;;4389173;32;20146;-38
2021/06/27 07:08:34;;;;;;;8.75;5.85;;;40.50;28.20;;;;;;4392877;32;20061;-37
2021/06/27 07:11:00;;;;;;;7.57;6.12;;;40.70;28.30;;;;;;4404657;32;20142;-39
2021/06/27 07:13:27;;;;;;;7.57;6.20;;;41.00;28.20;;;;;;4404190;32;20069;-38
2021/06/27 07:15:53;;;;;;;8.07;6.20;;;41.30;28.00;;;;;;4404036;32;21050;-38
2021/06/27 07:18:20;;;;;;;10.88;6.05;;;41.60;28.00;;;;;;4403841;32;20132;-39
2021/06/27 07:20:48;;;;;;;6.28;5.50;;;41.80;27.70;;;;;;4390246;32;20156;-39
2021/06/27 07:23:15;;;;;;;10.70;5.87;;;42.00;27.80;;;;;;4390448;32;20061;-39
2021/06/27 07:25:42;;;;;;;9.43;6.00;;;42.00;27.60;;;;;;4404135;32;20077;-39
2021/06/27 07:28:08;;;;;;;12.25;6.32;;;42.10;27.50;;;;;;4390261;32;20179;-39
2021/06/27 07:30:35;;;;;;;10.45;6.00;;;42.20;27.50;;;;;;4404082;32;20068;-38
2021/06/27 07:33:01;;;;;;;7.03;5.40;;;42.20;27.50;;;;;;4355563;32;20098;-39
2021/06/27 07:35:28;;;;;;;10.80;6.18;;;42.10;27.20;;;;;;4356534;32;20080;-39
2021/06/27 07:37:54;;;;;;;8.32;6.07;;;42.20;27.30;;;;;;4344204;32;20162;-38
2021/06/27 07:40:21;;;;;;;6.18;5.45;;;42.20;27.30;;;;;;4356533;32;20156;-38
2021/06/27 07:42:49;;;;;;;9.50;5.82;;;42.30;27.20;;;;;;4356039;32;20077;-38
2021/06/27 07:45:16;;;;;;;7.90;6.12;;;42.20;27.10;;;;;;4356219;32;20619;-38
2021/06/27 07:47:43;;;;;;;7.85;6.32;;;42.10;27.90;;;;;;4339001;33;20082;-38
2021/06/27 07:50:10;;;;;;;11.55;6.53;;;41.90;27.40;;;;;;4341370;32;20062;-39
2021/06/27 07:52:38;;;;;;;7.97;6.32;;;41.60;27.50;;;;;;4341241;32;20090;-39
2021/06/27 07:55:06;;;;;;;7.22;5.80;;;41.50;27.60;;;;;;4341163;32;20077;-39
2021/06/27 07:57:33;;;;;;;8.05;6.30;;;41.40;28.20;;;;;;4341273;32;20155;-39
2021/06/27 07:59:59;;;;;;;7.15;6.55;;;41.30;27.90;;;;;;4341319;32;20078;-39
2021/06/27 08:02:26;;;;;;;7.00;6.05;;;41.20;27.80;;;;;;4341195;33;20091;-38
2021/06/27 08:04:52;;;;;;;8.35;6.03;;;41.30;28.00;;;;;;4367434;32;20108;-39
2021/06/27 08:07:19;;;;;;;6.43;5.53;;;41.20;28.00;;;;;;4388753;32;20166;-39
2021/06/27 08:09:45;;;;;;;10.20;6.07;;;41.30;28.40;;;;;;4388109;32;20514;-38
2021/06/27 08:12:12;;;;;;;6.57;5.57;;;41.40;28.40;;;;;;4374404;32;20089;-39
2021/06/27 08:14:38;;;;;;;6.95;5.37;;;41.50;28.50;;;;;;4388047;32;20062;-38
2021/06/27 08:17:06;;;;;;;5.68;5.18;;;41.60;27.80;;;;;;4388174;32;20086;-40
2021/06/27 08:19:33;;;;;;;6.95;5.75;;;41.70;27.80;;;;;;4387777;32;20510;-40
2021/06/27 08:22:00;;;;;;;5.93;5.32;;;41.60;28.70;;;;;;4388149;32;20125;-46
2021/06/27 08:24:26;;;;;;;6.53;5.85;;;41.60;28.30;;;;;;4374317;32;20909;-42
2021/06/27 08:26:53;;;;;;;5.35;4.85;;;41.40;28.40;;;;;;4340651;32;20063;-38
2021/06/27 08:29:19;;;;;;;9.57;5.05;;;41.40;27.70;;;;;;4340468;32;20148;-40
2021/06/27 08:31:46;;;;;;;6.72;5.05;;;41.50;27.40;;;;;;4340341;32;20066;-38
2021/06/27 08:34:12;;;;;;;5.87;4.80;;;41.40;27.40;;;;;;4328119;33;20106;-40
2021/06/27 08:36:39;;;;;;;8.65;4.45;;;41.30;27.20;;;;;;4340378;32;20090;-38
2021/06/27 08:39:06;;;;;;;6.47;5.45;;;41.20;26.70;;;;;;4328793;33;20074;-39
2021/06/27 08:41:32;;;;;;;5.90;5.10;;;41.00;27.20;;;;;;4341252;33;20140;-40
2021/06/27 08:44:00;;;;;;;5.60;5.20;;;41.00;27.20;;;;;;4340282;32;20151;-38
2021/06/27 08:46:26;;;;;;;7.82;4.85;;;41.00;27.80;;;;;;4328656;33;20110;-39
2021/06/27 08:48:53;;;;;;;6.45;5.20;;;41.10;28.00;;;;;;4340001;32;20069;-39
2021/06/27 08:51:19;;;;;;;7.87;4.95;;;41.20;27.80;;;;;;4343089;32;20142;-40
2021/06/27 08:53:46;;;;;;;6.57;5.18;;;41.30;27.40;;;;;;4343145;32;20066;-40
2021/06/27 08:56:12;;;;;;;9.65;5.15;;;41.30;27.70;;;;;;4355037;32;20220;-40
2021/06/27 08:58:44;;;;;;;8.50;5.20;;;41.30;27.90;;;;;;4355151;32;20050;-40
2021/06/27 09:01:15;;;;;;;12.93;5.47;;;41.30;27.90;;;;;;4355772;32;20063;-37
2021/06/27 09:03:41;;;;;;;8.10;5.45;;;41.20;28.30;;;;;;4366600;32;20062;-39
2021/06/27 09:06:09;;;;;;;9.20;5.10;;;41.10;29.20;;;;;;4389110;32;20061;-40
2021/06/27 09:08:36;;;;;;;5.60;4.97;;;41.20;28.80;;;;;;4402605;32;20061;-38
2021/06/27 09:11:13;;;;;;;9.77;5.50;;;41.10;28.90;;;;;;4388986;32;20057;-39
2021/06/27 09:13:43;;;;;;;7.65;5.18;;;41.10;29.60;;;;;;4403266;32;20089;-38
2021/06/27 09:16:23;;;;;;;10.48;5.32;;;41.10;29.30;;;;;;4403030;32;20231;-37
2021/06/27 09:18:50;;;;;;;7.90;5.97;;;41.10;29.10;;;;;;4402909;32;20056;-39
2021/06/27 09:21:18;;;;;;;9.68;5.45;;;41.20;29.80;;;;;;4402951;32;20075;-39
2021/06/27 09:23:47;;;;;;;8.80;5.62;;;41.20;29.70;;;;;;4402626;32;20081;-38
2021/06/27 09:26:32;;;;;;;7.32;5.12;;;41.10;29.60;;;;;;4388456;32;20096;-38
2021/06/27 09:28:59;;;;;;;7.68;5.78;;;41.00;29.80;;;;;;4402802;32;20068;-40
2021/06/27 09:31:43;;;;;;;10.88;5.50;;;40.90;29.50;;;;;;4402953;32;20184;-40
2021/06/27 09:34:13;;;;;;;9.50;5.53;;;40.80;29.60;;;;;;4403048;32;20050;-38
2021/06/27 09:36:51;;;;;;;9.45;5.45;;;40.80;29.40;;;;;;4402563;32;20153;-40
2021/06/27 09:39:18;;;;;;;9.43;5.18;;;40.80;29.70;;;;;;4389136;32;20085;-39
2021/06/27 09:41:53;;;;;;;9.48;7.15;;;40.90;29.80;;;;;;4388408;32;20068;-39
2021/06/27 09:44:21;;;;;;;9.27;5.97;;;41.00;29.90;;;;;;4402682;32;20061;-40
2021/06/27 09:46:53;;;;;;;10.15;5.18;;;41.00;30.00;;;;;;4402747;32;20073;-39
2021/06/27 09:49:26;;;;;;;6.65;5.90;;;41.00;29.80;;;;;;4387817;32;20136;-39
2021/06/27 09:51:55;;;;;;;6.62;5.62;;;40.90;29.70;;;;;;4387699;32;20138;-39
2021/06/27 09:54:23;;;;;;;8.80;5.80;;;40.70;30.20;;;;;;4387696;32;20081;-40
2021/06/27 09:56:50;;;;;;;9.10;4.87;;;40.70;30.00;;;;;;4389986;32;20105;-39
2021/06/27 09:59:21;;;;;;;16.92;6.05;;;40.60;30.30;;;;;;4388763;32;20073;-39
2021/06/27 10:01:48;;;;;;;6.07;5.57;;;40.50;30.60;;;;;;4390272;32;20089;-38
2021/06/27 10:04:28;;;;;;;7.62;5.55;;;40.30;30.70;;;;;;4357187;32;20140;-39
2021/06/27 10:06:56;;;;;;;10.60;5.78;;;40.30;30.40;;;;;;4345429;32;20091;-40
2021/06/27 10:09:27;;;;;;;8.90;5.15;;;40.20;31.20;;;;;;4357298;32;20101;-39
2021/06/27 10:12:12;;;;;;;8.25;5.72;;;40.30;31.20;;;;;;4357840;32;20518;-39
2021/06/27 10:14:51;;;;;;;13.60;6.57;;;40.30;31.20;;;;;;4357588;32;20545;-40
2021/06/27 10:17:18;;;;;;;9.18;5.12;;;40.40;31.30;;;;;;4356982;32;20154;-39
2021/06/27 10:19:45;;;;;;;8.70;4.35;;;40.60;31.40;;;;;;4357268;32;20088;-39
2021/06/27 10:22:12;;;;;;;4.22;3.12;;;40.70;30.20;;;;;;4357595;32;20074;-39
2021/06/27 10:24:38;;;;;;;9.20;3.87;;;40.80;28.20;;;;;;4345383;32;20070;-39
2021/06/27 10:27:06;;;;;;;11.15;3.33;;;40.80;27.90;;;;;;4357125;32;20082;-40
2021/06/27 10:29:36;;;;;;;14.77;3.00;;;40.90;27.10;;;;;;4357158;32;20075;-39
2021/06/27 10:32:05;;;;;;;9.15;3.47;;;41.00;27.20;;;;;;4345139;32;20104;-39
2021/06/27 10:34:31;;;;;;;12.02;3.55;;;41.10;27.00;;;;;;4357093;32;20202;-39
2021/06/27 10:37:30;;;;;;;1.98;1.23;;;41.30;26.80;;;;;;4356731;32;20067;-39
2021/06/27 10:40:14;;;;;;;2.17;1.42;;;41.40;26.50;;;;;;4327080;33;20522;-39
2021/06/27 10:42:49;;;;;;;3.37;1.40;;;41.30;26.70;;;;;;4367903;32;20541;-39
2021/06/27 10:45:24;;;;;;;3.67;1.30;;;41.20;26.70;;;;;;4371660;32;20074;-39
2021/06/27 10:47:50;;;;;;;4.75;3.92;;;40.90;26.30;;;;;;4361905;32;20141;-39
2021/06/27 10:50:17;;;;;;;7.82;3.17;;;40.70;26.80;;;;;;4371734;32;20159;-38
2021/06/27 10:52:55;;;;;;;6.35;4.07;;;40.70;26.90;;;;;;4372225;32;20149;-38
2021/06/27 10:55:26;;;;;;;8.60;3.75;;;40.80;27.00;;;;;;4371719;32;20467;-39
2021/06/27 10:58:05;;;;;;;7.43;3.65;;;41.00;27.10;;;;;;4371419;32;20077;-38
2021/06/27 11:00:55;;;;;;;6.12;4.12;;;41.10;26.30;;;;;;4372125;32;20137;-40
2021/06/27 11:03:43;;;;;;;10.93;3.90;;;41.30;27.00;;;;;;4371891;32;20063;-38
2021/06/27 11:06:12;;;;;;;6.05;4.80;;;41.20;26.80;;;;;;4371823;32;20069;-38
2021/06/27 11:08:43;;;;;;;10.02;4.53;;;41.30;27.60;;;;;;4371602;32;20071;-39
2021/06/27 11:11:14;;;;;;;12.45;4.47;;;41.40;27.50;;;;;;4371218;32;20081;-40
2021/06/27 11:13:42;;;;;;;7.22;3.60;;;41.40;27.50;;;;;;4372298;32;20173;-40
2021/06/27 11:16:15;;;;;;;11.05;5.28;;;41.40;26.80;;;;;;4377901;32;20158;-39
2021/06/27 11:18:47;;;;;;;4.75;2.30;;;41.50;27.40;;;;;;4375815;32;20113;-38
2021/06/27 11:21:24;;;;;;;2.25;1.45;;;41.50;27.00;;;;;;4389560;32;20054;-38
2021/06/27 11:23:58;;;;;;;5.30;2.53;;;41.30;26.30;;;;;;4372596;32;20085;-37
2021/06/27 11:26:47;;;;;;;6.65;3.10;;;41.00;26.60;;;;;;4372387;32;20066;-40
2021/06/27 11:29:23;;;;;;;9.55;3.22;;;41.10;26.80;;;;;;4372078;32;20072;-39
2021/06/27 11:31:54;;;;;;;11.98;3.08;;;41.30;26.40;;;;;;4372073;32;20125;-38
2021/06/27 11:34:24;;;;;;;6.30;2.50;;;41.30;26.40;;;;;;4359784;32;20104;-38
2021/06/27 11:36:51;;;;;;;5.70;2.85;;;41.20;26.00;;;;;;4371659;32;20060;-38
2021/06/27 11:39:49;;;;;;;8.02;4.03;;;41.20;26.10;;;;;;4370966;32;20085;-40
2021/06/27 11:42:26;;;;;;;11.00;4.40;;;41.30;25.80;;;;;;4370976;32;20085;-38
2021/06/27 11:45:07;;;;;;;5.10;3.10;;;41.50;26.00;;;;;;4370992;32;20255;-38
2021/06/27 11:47:43;;;;;;;4.15;1.55;;;41.50;25.80;;;;;;4374716;32;20065;-39
2021/06/27 11:50:16;;;;;;;6.78;3.03;;;41.50;25.60;;;;;;4386036;32;20622;-38
2021/06/27 11:52:43;;;;;;;8.00;3.20;;;41.40;25.80;;;;;;4341036;33;20666;-39
2021/06/27 11:55:10;;;;;;;8.82;3.47;;;41.30;25.90;;;;;;4350424;32;20620;-38
2021/06/27 11:57:40;;;;;;;5.70;1.15;;;41.40;26.20;;;;;;4343671;32;20627;-39
2021/06/27 12:00:08;;;;;;;8.70;3.12;;;41.30;25.70;;;;;;4356529;32;21009;-38
2021/06/27 12:02:38;;;;;;;5.75;2.28;;;41.20;25.90;;;;;;4355792;32;20554;-39
2021/06/27 12:05:15;;;;;;;7.60;3.67;;;41.20;25.90;;;;;;4343350;32;20589;-39
2021/06/27 12:07:43;;;;;;;7.80;3.60;;;41.20;26.10;;;;;;4355844;32;20102;-39
2021/06/27 12:10:18;;;;;;;5.65;3.22;;;41.40;26.20;;;;;;4355736;32;20098;-40
2021/06/27 12:13:04;;;;;;;6.18;3.30;;;41.50;26.00;;;;;;4356115;32;20560;-40
2021/06/27 12:15:40;;;;;;;7.65;1.65;;;41.60;25.80;;;;;;4355807;32;20086;-40
2021/06/27 12:18:29;;;;;;;6.80;2.87;;;41.40;25.30;;;;;;4355482;32;20070;-40
2021/06/27 12:20:58;;;;;;;5.25;1.08;;;41.30;25.40;;;;;;4355179;32;20159;-39
2021/06/27 12:23:37;;;;;;;8.27;2.40;;;41.20;24.90;;;;;;4343676;32;20074;-39
2021/06/27 12:26:16;;;;;;;5.97;1.48;;;41.10;25.30;;;;;;4355618;32;20109;-39
2021/06/27 12:28:47;;;;;;;14.10;3.20;;;41.00;25.30;;;;;;4355653;32;20062;-39
2021/06/27 12:31:22;;;;;;;7.20;2.55;;;40.80;25.40;;;;;;4400032;32;20072;-39
2021/06/27 12:33:57;;;;;;;7.28;1.87;;;40.90;25.60;;;;;;4403653;32;20054;-39
2021/06/27 12:36:29;;;;;;;6.85;2.95;;;40.90;25.50;;;;;;4403017;32;20074;-38
2021/06/27 12:39:01;;;;;;;12.90;2.85;;;40.80;25.60;;;;;;4389410;32;20066;-38
2021/06/27 12:41:34;;;;;;;6.72;2.62;;;40.80;25.70;;;;;;4403377;32;20556;-40
2021/06/27 12:44:05;;;;;;;9.63;3.80;;;41.00;25.80;;;;;;4403313;32;20060;-40
2021/06/27 12:46:47;;;;;;;8.00;2.30;;;41.10;25.70;;;;;;4403081;32;20089;-39
2021/06/27 12:49:14;;;;;;;8.27;2.17;;;41.20;25.90;;;;;;4388793;32;20514;-40
2021/06/27 12:51:50;;;;;;;4.87;1.20;;;41.10;26.00;;;;;;4387718;32;20081;-38
2021/06/27 12:54:30;;;;;;;3.22;1.20;;;40.70;26.10;;;;;;4388018;32;20061;-39
2021/06/27 12:57:18;;;;;;;9.27;3.45;;;40.60;26.50;;;;;;4386438;32;20061;-39